createdAt,value
2017-07-30T00:00:55.443Z,74.13
2017-07-30T00:03:24.099Z,73.86
2017-07-30T00:05:52.483Z,74.15
2017-07-30T00:08:21.179Z,75.28
2017-07-30T00:10:49.540Z,74.71
2017-07-30T00:13:17.874Z,74.17
2017-07-30T00:15:46.746Z,74.36
2017-07-30T00:18:15.126Z,75.07
2017-07-30T00:20:43.503Z,76.86
2017-07-30T00:23:12.132Z,76.76
2017-07-30T00:25:40.497Z,76.79
2017-07-30T00:28:08.850Z,76.54
2017-07-30T00:30:37.599Z,76.44
2017-07-30T00:33:06.855Z,77.02
2017-07-30T00:35:35.219Z,76.67
2017-07-30T00:38:04.891Z,76.69
2017-07-30T00:40:33.233Z,76.57
2017-07-30T00:43:01.609Z,76.73
2017-07-30T00:45:30.246Z,77.10
2017-07-30T00:47:58.582Z,76.84
2017-07-30T00:50:26.968Z,75.87
2017-07-30T00:52:55.812Z,75.92
2017-07-30T00:55:24.219Z,76.52
2017-07-30T00:57:52.582Z,76.59
2017-07-30T01:00:21.639Z,76.24
2017-07-30T01:02:49.972Z,75.62
2017-07-30T01:05:18.332Z,75.61
2017-07-30T01:07:46.961Z,75.80
2017-07-30T01:10:15.298Z,75.39
2017-07-30T01:12:43.653Z,75.65
2017-07-30T01:15:12.576Z,75.56
2017-07-30T01:17:40.937Z,75.38
2017-07-30T01:20:09.760Z,76.16
2017-07-30T01:22:38.644Z,75.85
2017-07-30T01:25:06.992Z,75.88
2017-07-30T01:27:35.347Z,76.53
2017-07-30T01:30:03.959Z,77.35
2017-07-30T01:32:32.346Z,77.66
2017-07-30T01:35:00.774Z,77.62
2017-07-30T01:37:29.430Z,76.33
2017-07-30T01:39:57.836Z,75.60
2017-07-30T01:42:26.967Z,75.85
2017-07-30T01:44:55.922Z,76.33
2017-07-30T01:47:24.301Z,76.60
2017-07-30T01:49:53.433Z,76.58
2017-07-30T01:52:22.124Z,76.98
2017-07-30T01:54:50.839Z,77.01
2017-07-30T01:57:19.183Z,77.61
2017-07-30T01:59:48.054Z,78.02
2017-07-30T02:02:16.398Z,78.20
2017-07-30T02:04:44.747Z,78.42
2017-07-30T02:07:13.655Z,78.11
2017-07-30T02:09:42.029Z,78.25
2017-07-30T02:12:10.379Z,77.63
2017-07-30T02:14:39.007Z,78.35
2017-07-30T02:17:07.363Z,78.49
2017-07-30T02:19:35.712Z,78.73
2017-07-30T02:22:04.609Z,79.19
2017-07-30T02:24:32.985Z,78.90
2017-07-30T02:27:01.355Z,78.78
2017-07-30T02:29:30.471Z,78.19
2017-07-30T02:31:58.830Z,78.06
2017-07-30T02:34:27.297Z,77.95
2017-07-30T02:36:56.161Z,78.09
2017-07-30T02:39:24.544Z,78.63
2017-07-30T02:41:52.942Z,78.48
2017-07-30T02:44:22.114Z,78.88
2017-07-30T02:46:50.477Z,78.73
2017-07-30T02:49:18.848Z,78.43
2017-07-30T02:51:48.079Z,78.47
2017-07-30T02:54:16.425Z,79.13
2017-07-30T02:56:44.767Z,77.75
2017-07-30T02:59:13.690Z,78.11
2017-07-30T03:01:42.069Z,78.41
2017-07-30T03:04:10.414Z,79.51
2017-07-30T03:06:39.050Z,79.32
2017-07-30T03:09:08.401Z,78.81
2017-07-30T03:11:36.763Z,78.79
2017-07-30T03:14:05.661Z,78.46
2017-07-30T03:16:34.015Z,78.68
2017-07-30T03:19:02.381Z,78.45
2017-07-30T03:21:31.055Z,78.51
2017-07-30T03:23:59.398Z,78.13
2017-07-30T03:26:28.523Z,78.20
2017-07-30T03:28:57.176Z,77.98
2017-07-30T03:31:26.338Z,78.22
2017-07-30T03:33:54.679Z,78.53
2017-07-30T03:36:23.574Z,78.04
2017-07-30T03:38:51.926Z,77.66
2017-07-30T03:41:20.268Z,78.33
2017-07-30T03:43:48.887Z,77.37
2017-07-30T03:46:17.281Z,77.57
2017-07-30T03:48:45.706Z,76.83
2017-07-30T03:51:14.463Z,76.89
2017-07-30T03:53:42.820Z,76.48
2017-07-30T03:56:11.944Z,76.19
2017-07-30T03:58:40.916Z,76.18
2017-07-30T04:01:09.278Z,75.73
2017-07-30T04:03:38.402Z,75.07
2017-07-30T04:06:07.207Z,74.51
2017-07-30T04:08:35.553Z,74.77
2017-07-30T04:11:03.914Z,74.29
2017-07-30T04:13:32.550Z,74.21
2017-07-30T04:16:00.917Z,74.42
2017-07-30T04:18:29.279Z,73.88
2017-07-30T04:20:59.112Z,73.23
2017-07-30T04:23:27.470Z,73.78
2017-07-30T04:25:56.577Z,74.13
2017-07-30T04:28:25.992Z,74.20
2017-07-30T04:30:54.347Z,73.77
2017-07-30T04:33:23.895Z,73.45
2017-07-30T04:35:52.703Z,72.79
2017-07-30T04:38:21.065Z,72.29
2017-07-30T04:40:49.404Z,72.24
2017-07-30T04:43:18.319Z,72.22
2017-07-30T04:45:46.676Z,72.80
2017-07-30T04:48:15.033Z,73.94
2017-07-30T04:50:43.702Z,73.71
2017-07-30T04:53:12.071Z,74.19
2017-07-30T04:55:40.442Z,74.14
2017-07-30T04:58:09.242Z,74.77
2017-07-30T05:00:37.620Z,75.27
2017-07-30T05:03:06.865Z,73.61
2017-07-30T05:05:36.599Z,73.21
2017-07-30T05:08:04.957Z,73.31
2017-07-30T05:10:33.331Z,73.07
2017-07-30T05:13:02.841Z,72.54
2017-07-30T05:15:31.220Z,72.30
2017-07-30T05:17:59.614Z,71.68
2017-07-30T05:20:29.018Z,71.95
2017-07-30T05:22:57.368Z,72.08
2017-07-30T05:25:25.800Z,71.98
2017-07-30T05:27:54.712Z,72.64
2017-07-30T05:30:23.064Z,72.14
2017-07-30T05:32:51.410Z,72.62
2017-07-30T05:35:20.077Z,72.68
2017-07-30T05:37:49.437Z,72.62
2017-07-30T05:40:17.787Z,72.15
2017-07-30T05:42:46.597Z,71.96
2017-07-30T05:45:14.956Z,72.29
2017-07-30T05:47:43.306Z,72.30
2017-07-30T05:50:12.273Z,72.18
2017-07-30T05:52:40.663Z,71.61
2017-07-30T05:55:09.056Z,71.84
2017-07-30T05:57:37.677Z,72.11
2017-07-30T06:00:06.005Z,71.67
2017-07-30T06:02:34.346Z,71.90
2017-07-30T06:05:03.137Z,71.14
2017-07-30T06:07:31.488Z,71.50
2017-07-30T06:10:00.601Z,71.93
2017-07-30T06:12:29.355Z,72.55
2017-07-30T06:14:57.706Z,71.83
2017-07-30T06:17:26.076Z,72.03
2017-07-30T06:19:54.695Z,71.94
2017-07-30T06:22:23.053Z,71.98
2017-07-30T06:24:51.384Z,72.39
2017-07-30T06:27:20.040Z,72.04
2017-07-30T06:29:48.381Z,72.84
2017-07-30T06:32:16.721Z,72.83
2017-07-30T06:34:46.165Z,71.89
2017-07-30T06:37:14.510Z,71.93
2017-07-30T06:39:43.622Z,72.02
2017-07-30T06:42:12.286Z,72.13
2017-07-30T06:44:41.411Z,72.30
2017-07-30T06:47:09.760Z,72.60
2017-07-30T06:49:38.421Z,72.52
2017-07-30T06:52:06.758Z,72.67
2017-07-30T06:54:35.112Z,73.21
2017-07-30T06:57:04.122Z,73.30
2017-07-30T06:59:32.474Z,73.29
2017-07-30T07:02:01.575Z,74.61
2017-07-30T07:04:31.206Z,74.94
2017-07-30T07:06:59.587Z,74.81
2017-07-30T07:09:27.940Z,74.71
2017-07-30T07:11:56.615Z,75.07
2017-07-30T07:14:24.975Z,76.36
2017-07-30T07:16:53.319Z,77.70
2017-07-30T07:19:22.056Z,78.38
2017-07-30T07:21:50.428Z,78.75
2017-07-30T07:24:18.783Z,78.27
2017-07-30T07:26:47.536Z,77.48
2017-07-30T07:29:15.878Z,77.06
2017-07-30T07:31:44.223Z,77.87
2017-07-30T07:34:13.057Z,78.96
2017-07-30T07:36:42.189Z,78.75
2017-07-30T07:39:10.784Z,78.36
2017-07-30T07:41:39.656Z,77.51
2017-07-30T07:44:07.983Z,76.23
2017-07-30T07:46:36.324Z,76.37
2017-07-30T07:49:05.073Z,76.44
2017-07-30T07:51:33.417Z,75.17
2017-07-30T07:54:02.350Z,75.30
2017-07-30T07:56:31.086Z,75.09
2017-07-30T07:58:59.415Z,74.89
2017-07-30T08:01:27.780Z,76.11
2017-07-30T08:03:57.439Z,75.03
2017-07-30T08:06:25.775Z,73.37
2017-07-30T08:08:54.132Z,73.99
2017-07-30T08:11:22.751Z,71.80
2017-07-30T08:13:51.110Z,70.24
2017-07-30T08:16:19.472Z,70.21
2017-07-30T08:18:48.133Z,68.29
2017-07-30T08:21:16.490Z,68.20
2017-07-30T08:23:44.834Z,69.10
2017-07-30T08:26:13.987Z,67.68
2017-07-30T08:28:42.315Z,66.31
2017-07-30T08:31:10.949Z,67.65
2017-07-30T08:33:39.715Z,68.21
2017-07-30T08:36:08.063Z,68.29
2017-07-30T08:38:36.417Z,68.27
2017-07-30T08:41:05.271Z,68.63
2017-07-30T08:43:33.621Z,68.11
2017-07-30T08:46:02.729Z,67.75
2017-07-30T08:48:32.558Z,67.95
2017-07-30T08:51:00.892Z,66.29
2017-07-30T08:53:29.240Z,66.65
2017-07-30T08:55:57.892Z,65.82
2017-07-30T08:58:26.579Z,64.77
2017-07-30T09:00:54.922Z,64.45
2017-07-30T09:03:23.836Z,64.59
2017-07-30T09:05:52.165Z,63.51
2017-07-30T09:08:20.531Z,63.52
2017-07-30T09:10:49.685Z,63.32
2017-07-30T09:13:18.012Z,61.36
2017-07-30T09:15:46.368Z,61.65
2017-07-30T09:18:14.994Z,62.37
2017-07-30T09:20:44.036Z,61.18
2017-07-30T09:23:12.390Z,61.29
2017-07-30T09:25:41.054Z,60.96
2017-07-30T09:28:09.760Z,61.13
2017-07-30T09:30:38.108Z,59.98
2017-07-30T09:33:06.883Z,59.72
2017-07-30T09:35:35.234Z,58.41
2017-07-30T09:38:03.570Z,56.58
2017-07-30T09:40:32.290Z,58.24
2017-07-30T09:43:00.627Z,57.38
2017-07-30T09:45:28.962Z,54.89
2017-07-30T09:47:57.762Z,55.23
2017-07-30T09:50:26.092Z,55.57
2017-07-30T09:52:54.443Z,54.13
2017-07-30T09:55:23.135Z,52.83
2017-07-30T09:57:51.498Z,50.40
2017-07-30T10:00:20.334Z,49.65
2017-07-30T10:02:49.406Z,50.82
2017-07-30T10:05:17.742Z,49.70
2017-07-30T10:07:46.146Z,46.20
2017-07-30T10:10:14.955Z,46.73
2017-07-30T10:12:43.307Z,47.57
2017-07-30T10:15:11.662Z,48.28
2017-07-30T10:17:40.498Z,49.98
2017-07-30T10:20:08.833Z,49.96
2017-07-30T10:22:37.191Z,50.25
2017-07-30T10:25:06.002Z,50.30
2017-07-30T10:27:34.334Z,50.32
2017-07-30T10:30:02.702Z,49.99
2017-07-30T10:32:31.446Z,50.69
2017-07-30T10:34:59.778Z,50.14
2017-07-30T10:37:28.124Z,50.21
2017-07-30T10:39:57.282Z,49.56
2017-07-30T10:42:25.698Z,47.89
2017-07-30T10:44:54.038Z,47.00
2017-07-30T10:47:22.762Z,48.01
2017-07-30T10:49:51.112Z,47.56
2017-07-30T10:52:20.228Z,46.80
2017-07-30T10:54:48.851Z,44.24
2017-07-30T10:57:17.210Z,46.64
2017-07-30T10:59:45.569Z,47.07
2017-07-30T11:02:14.667Z,47.76
2017-07-30T11:04:43.013Z,48.38
2017-07-30T11:07:12.139Z,47.14
2017-07-30T11:09:40.771Z,46.64
2017-07-30T11:12:09.103Z,45.88
2017-07-30T11:14:37.488Z,44.19
2017-07-30T11:17:06.381Z,43.31
2017-07-30T11:19:34.722Z,44.01
2017-07-30T11:22:03.074Z,43.57
2017-07-30T11:24:31.846Z,42.13
2017-07-30T11:27:00.201Z,42.10
2017-07-30T11:29:29.123Z,41.56
2017-07-30T11:31:58.085Z,39.76
2017-07-30T11:34:26.418Z,40.48
2017-07-30T11:36:54.745Z,41.32
2017-07-30T11:39:23.346Z,41.64
2017-07-30T11:41:51.681Z,42.13
2017-07-30T11:44:20.044Z,43.72
2017-07-30T11:46:48.901Z,42.76
2017-07-30T11:49:17.238Z,41.41
2017-07-30T11:51:45.566Z,40.55
2017-07-30T11:54:14.202Z,39.35
2017-07-30T11:56:42.543Z,38.53
2017-07-30T11:59:10.896Z,37.70
2017-07-30T12:01:39.637Z,37.34
2017-07-30T12:04:07.968Z,37.00
2017-07-30T12:06:36.309Z,35.97
2017-07-30T12:09:05.488Z,35.08
2017-07-30T12:11:33.837Z,35.45
2017-07-30T12:14:02.175Z,34.44
2017-07-30T12:16:30.821Z,34.19
2017-07-30T12:18:59.223Z,33.87
2017-07-30T12:21:27.558Z,33.86
2017-07-30T12:23:56.396Z,35.10
2017-07-30T12:26:24.771Z,35.51
2017-07-30T12:28:53.123Z,34.87
2017-07-30T12:31:21.955Z,35.22
2017-07-30T12:33:50.318Z,33.97
2017-07-30T12:36:18.703Z,33.94
2017-07-30T12:38:47.363Z,33.66
2017-07-30T12:41:15.702Z,33.83
2017-07-30T12:43:44.027Z,33.57
2017-07-30T12:46:12.954Z,34.26
2017-07-30T12:48:41.297Z,34.23
2017-07-30T12:51:09.640Z,35.24
2017-07-30T12:53:38.602Z,34.39
2017-07-30T12:56:06.965Z,33.97
2017-07-30T12:58:35.325Z,34.22
2017-07-30T13:01:04.504Z,35.40
2017-07-30T13:03:32.850Z,34.67
2017-07-30T13:06:01.178Z,33.30
2017-07-30T13:08:30.093Z,33.54
2017-07-30T13:10:58.427Z,35.38
2017-07-30T13:13:26.757Z,35.41
2017-07-30T13:15:56.528Z,34.95
2017-07-30T13:18:24.975Z,36.88
2017-07-30T13:20:53.322Z,36.21
2017-07-30T13:23:22.058Z,36.34
2017-07-30T13:25:50.385Z,36.04
2017-07-30T13:28:19.921Z,36.80
2017-07-30T13:30:48.543Z,35.98
2017-07-30T13:33:16.882Z,35.46
2017-07-30T13:35:45.239Z,35.69
2017-07-30T13:38:13.979Z,35.67
2017-07-30T13:40:42.316Z,35.65
2017-07-30T13:43:10.642Z,35.35
2017-07-30T13:45:39.600Z,35.38
2017-07-30T13:48:07.933Z,35.05
2017-07-30T13:50:36.274Z,35.82
2017-07-30T13:53:04.903Z,36.02
2017-07-30T13:55:34.033Z,36.52
2017-07-30T13:58:02.389Z,37.65
2017-07-30T14:00:31.430Z,36.88
2017-07-30T14:02:59.772Z,37.58
2017-07-30T14:05:28.119Z,38.06
2017-07-30T14:07:57.757Z,37.56
2017-07-30T14:10:26.103Z,37.82
2017-07-30T14:12:54.454Z,38.58
2017-07-30T14:15:23.080Z,38.28
2017-07-30T14:17:52.182Z,37.49
2017-07-30T14:20:20.522Z,36.46
2017-07-30T14:22:49.224Z,37.66
2017-07-30T14:25:17.568Z,38.65
2017-07-30T14:27:45.937Z,38.35
2017-07-30T14:30:14.706Z,37.57
2017-07-30T14:32:43.063Z,37.50
2017-07-30T14:35:12.168Z,37.08
2017-07-30T14:37:40.827Z,36.56
2017-07-30T14:40:09.204Z,36.51
2017-07-30T14:42:37.569Z,35.93
2017-07-30T14:45:06.780Z,36.01
2017-07-30T14:47:35.138Z,38.13
2017-07-30T14:50:03.462Z,37.82
2017-07-30T14:52:32.163Z,37.28
2017-07-30T14:55:00.494Z,38.17
2017-07-30T14:57:28.842Z,38.83
2017-07-30T14:59:57.731Z,38.66
2017-07-30T15:02:26.074Z,39.64
2017-07-30T15:04:55.173Z,39.11
2017-07-30T15:07:24.991Z,39.04
2017-07-30T15:09:53.340Z,38.49
2017-07-30T15:12:21.691Z,38.49
2017-07-30T15:14:50.667Z,38.06
2017-07-30T15:17:19.044Z,38.94
2017-07-30T15:19:47.398Z,39.21
2017-07-30T15:22:16.027Z,39.71
2017-07-30T15:24:44.383Z,39.75
2017-07-30T15:27:12.731Z,39.30
2017-07-30T15:29:41.953Z,39.48
2017-07-30T15:32:10.287Z,39.08
2017-07-30T15:34:38.629Z,38.50
2017-07-30T15:37:07.505Z,39.12
2017-07-30T15:39:35.846Z,39.46
2017-07-30T15:42:04.197Z,38.96
2017-07-30T15:44:32.825Z,38.45
2017-07-30T15:47:01.175Z,39.10
2017-07-30T15:49:29.528Z,39.07
2017-07-30T15:51:58.478Z,39.92
2017-07-30T15:54:26.808Z,39.52
2017-07-30T15:56:55.159Z,39.15
2017-07-30T15:59:23.931Z,40.07
2017-07-30T16:01:52.283Z,39.37
2017-07-30T16:04:20.620Z,38.62
2017-07-30T16:06:49.275Z,36.23
2017-07-30T16:09:17.600Z,36.48
2017-07-30T16:11:45.916Z,36.21
2017-07-30T16:14:15.068Z,34.96
2017-07-30T16:16:44.035Z,33.35
2017-07-30T16:19:12.381Z,33.22
2017-07-30T16:21:41.152Z,33.54
2017-07-30T16:24:09.507Z,30.41
2017-07-30T16:26:37.862Z,30.15
2017-07-30T16:29:06.754Z,30.69
2017-07-30T16:31:35.106Z,29.64
2017-07-30T16:34:04.128Z,30.26
2017-07-30T16:36:33.025Z,30.17
2017-07-30T16:39:01.371Z,30.37
2017-07-30T16:41:30.494Z,30.16
2017-07-30T16:43:59.133Z,29.82
2017-07-30T16:46:27.524Z,29.90
2017-07-30T16:48:55.880Z,30.02
2017-07-30T16:51:24.730Z,30.34
2017-07-30T16:53:53.079Z,30.14
2017-07-30T16:56:22.201Z,30.97
2017-07-30T16:58:51.213Z,32.09
2017-07-30T17:01:19.720Z,32.46
2017-07-30T17:03:48.054Z,32.72
2017-07-30T17:06:16.873Z,32.89
2017-07-30T17:08:45.869Z,33.00
2017-07-30T17:11:14.226Z,33.87
2017-07-30T17:13:43.113Z,34.90
2017-07-30T17:16:11.455Z,35.81
2017-07-30T17:18:39.812Z,37.90
2017-07-30T17:21:08.746Z,38.38
2017-07-30T17:23:37.814Z,39.20
2017-07-30T17:26:06.174Z,40.02
2017-07-30T17:28:35.056Z,40.50
2017-07-30T17:31:03.386Z,40.81
2017-07-30T17:33:31.725Z,40.95
2017-07-30T17:36:00.688Z,41.63
2017-07-30T17:38:29.060Z,41.71
2017-07-30T17:40:58.360Z,42.94
2017-07-30T17:43:27.135Z,42.86
2017-07-30T17:45:55.512Z,43.02
2017-07-30T17:48:23.896Z,43.16
2017-07-30T17:50:52.799Z,42.85
2017-07-30T17:53:21.183Z,42.96
2017-07-30T17:55:49.523Z,43.33
2017-07-30T17:58:18.138Z,43.33
2017-07-30T18:00:46.513Z,43.41
2017-07-30T18:03:15.026Z,43.84
2017-07-30T18:05:44.000Z,44.05
2017-07-30T18:08:12.334Z,44.21
2017-07-30T18:10:40.699Z,44.75
2017-07-30T18:13:09.537Z,44.38
2017-07-30T18:15:37.970Z,43.65
2017-07-30T18:18:06.351Z,44.42
2017-07-30T18:20:35.187Z,44.60
2017-07-30T18:23:03.539Z,44.45
2017-07-30T18:25:31.872Z,44.98
2017-07-30T18:28:00.680Z,44.86
2017-07-30T18:30:29.050Z,44.78
2017-07-30T18:32:57.389Z,44.75
2017-07-30T18:35:26.296Z,44.54
2017-07-30T18:37:54.618Z,44.98
2017-07-30T18:40:23.825Z,44.92
2017-07-30T18:42:54.422Z,44.95
2017-07-30T18:45:22.771Z,46.03
2017-07-30T18:47:51.116Z,47.06
2017-07-30T18:50:19.816Z,47.15
2017-07-30T18:52:48.201Z,48.31
2017-07-30T18:55:17.756Z,48.87
2017-07-30T18:57:46.678Z,48.99
2017-07-30T19:00:15.316Z,49.66
2017-07-30T19:02:43.659Z,49.96
2017-07-30T19:05:12.698Z,50.05
2017-07-30T19:07:41.095Z,50.50
2017-07-30T19:10:10.152Z,51.05
2017-07-30T19:12:38.865Z,51.17
2017-07-30T19:15:07.262Z,50.92
2017-07-30T19:17:35.635Z,51.28
2017-07-30T19:20:04.403Z,50.87
2017-07-30T19:22:32.794Z,50.65
2017-07-30T19:25:01.171Z,50.93
2017-07-30T19:27:30.164Z,50.54
2017-07-30T19:29:58.789Z,50.51
2017-07-30T19:32:27.181Z,50.43
2017-07-30T19:34:58.139Z,50.59
2017-07-30T19:37:26.518Z,51.24
2017-07-30T19:39:54.863Z,51.74
2017-07-30T19:42:23.692Z,51.68
2017-07-30T19:44:52.051Z,51.44
2017-07-30T19:47:21.167Z,51.80
2017-07-30T19:49:49.956Z,51.80
2017-07-30T19:52:18.323Z,51.82
2017-07-30T19:54:47.457Z,51.80
2017-07-30T19:57:16.444Z,52.07
2017-07-30T19:59:44.810Z,52.38
2017-07-30T20:02:13.560Z,52.52
2017-07-30T20:04:42.514Z,52.52
2017-07-30T20:07:10.873Z,52.76
2017-07-30T20:09:39.248Z,53.07
2017-07-30T20:12:07.972Z,53.34
2017-07-30T20:14:36.341Z,53.19
2017-07-30T20:17:04.698Z,53.27
2017-07-30T20:19:33.647Z,53.25
2017-07-30T20:22:02.104Z,53.42
2017-07-30T20:24:30.463Z,53.43
2017-07-30T20:26:59.096Z,53.96
2017-07-30T20:29:27.472Z,54.29
2017-07-30T20:31:55.834Z,54.46
2017-07-30T20:34:24.671Z,54.86
2017-07-30T20:36:53.019Z,54.69
2017-07-30T20:39:21.370Z,55.38
2017-07-30T20:41:50.569Z,55.37
2017-07-30T20:44:19.662Z,55.26
2017-07-30T20:46:48.010Z,55.28
2017-07-30T20:49:16.835Z,55.58
2017-07-30T20:51:45.198Z,55.45
2017-07-30T20:54:13.576Z,55.92
2017-07-30T20:56:42.263Z,56.14
2017-07-30T20:59:10.663Z,55.83
2017-07-30T21:01:39.202Z,56.29
2017-07-30T21:04:08.258Z,56.36
2017-07-30T21:06:36.600Z,56.36
2017-07-30T21:09:04.969Z,56.71
2017-07-30T21:11:33.726Z,56.85
2017-07-30T21:14:02.097Z,56.86
2017-07-30T21:16:31.216Z,57.16
2017-07-30T21:19:00.819Z,57.28
2017-07-30T21:21:29.177Z,57.48
2017-07-30T21:23:57.546Z,57.93
2017-07-30T21:26:26.274Z,58.08
2017-07-30T21:28:54.654Z,58.21
2017-07-30T21:31:22.988Z,58.26
2017-07-30T21:33:51.779Z,58.40
2017-07-30T21:36:20.114Z,59.06
2017-07-30T21:38:48.444Z,59.25
2017-07-30T21:41:17.398Z,59.60
2017-07-30T21:43:45.761Z,60.14
2017-07-30T21:46:14.095Z,60.12
2017-07-30T21:48:42.805Z,60.20
2017-07-30T21:51:11.181Z,60.72
2017-07-30T21:53:40.310Z,60.52
2017-07-30T21:56:09.091Z,60.45
2017-07-30T21:58:37.453Z,60.74
2017-07-30T22:01:06.066Z,61.36
2017-07-30T22:03:34.928Z,61.41
2017-07-30T22:06:03.485Z,61.98
2017-07-30T22:08:31.825Z,61.68
2017-07-30T22:11:00.552Z,61.64
2017-07-30T22:13:28.895Z,61.63
2017-07-30T22:15:57.263Z,61.78
2017-07-30T22:18:25.926Z,61.31
2017-07-30T22:20:54.263Z,62.00
2017-07-30T22:23:22.634Z,61.70
2017-07-30T22:25:51.562Z,61.49
2017-07-30T22:28:19.972Z,61.29
2017-07-30T22:30:48.330Z,61.27
2017-07-30T22:33:17.043Z,61.01
2017-07-30T22:35:45.389Z,61.13
2017-07-30T22:38:13.740Z,61.69
2017-07-30T22:40:42.568Z,62.24
2017-07-30T22:43:10.932Z,62.68
2017-07-30T22:45:39.298Z,63.34
2017-07-30T22:48:08.235Z,63.25
2017-07-30T22:50:36.566Z,63.80
2017-07-30T22:53:04.939Z,63.94
2017-07-30T22:55:33.895Z,64.10
2017-07-30T22:58:02.222Z,64.20
2017-07-30T23:00:31.354Z,64.98
2017-07-30T23:03:00.134Z,66.02
2017-07-30T23:05:28.477Z,66.28
2017-07-30T23:07:56.817Z,66.37
2017-07-30T23:10:25.493Z,66.38
2017-07-30T23:12:53.827Z,66.75
2017-07-30T23:15:22.170Z,67.10
2017-07-30T23:17:51.023Z,67.18
2017-07-30T23:20:19.347Z,67.69
2017-07-30T23:22:47.681Z,67.44
2017-07-30T23:25:16.370Z,67.84
2017-07-30T23:27:44.706Z,68.22
2017-07-30T23:30:13.036Z,68.46
2017-07-30T23:32:41.669Z,68.60
2017-07-30T23:35:10.007Z,68.09
2017-07-30T23:37:38.356Z,67.99
2017-07-30T23:40:07.869Z,68.05
2017-07-30T23:42:36.232Z,68.62
2017-07-30T23:45:04.552Z,68.59
2017-07-30T23:47:33.409Z,68.63
2017-07-30T23:50:01.746Z,69.63
2017-07-30T23:52:30.071Z,70.51
2017-07-30T23:54:58.790Z,70.49
2017-07-30T23:57:27.125Z,69.77
2017-07-30T23:59:55.458Z,69.26
